Jasper, Oregon
Current Conditions -  °F | °C
As of 10:54 PM on Friday 28 Nov 2014 (Local Time) from KEUG Reporting Station
Light Rain Light Rain  
Wind Chill: 46°   Ceiling: 3900
Heat Index: 48°   Visibility: 10mi
Dew Point: 44°   Wind: 5mph
Humidity: 86%   Direction: 320°NW
Pressure: 29.66"   Gusts: NA
Location:  43.9537°N, 122.621°W
Report Text: KEUG 290654Z 32004KT 10SM -RA FEW025 FEW030 OVC039 09/07 A2966 RMK AO2 RAB48 SLP045 P0000 T00890067
Loading
Personal Weather Stations






























Interactive Weather Map New forecast layout! Learn more

10-Day Weather Forecast

Advertisements
Track Severe Weather on mobile